sensor_id;sensor_type;location;lat;lon;timestamp;pressure;altitude;pressure_sealevel;temperature;humidity
42067;BME280;27734;47.028;28.820;2023-01-28T00:02:18;100438.83;;;-1.91;90.75
42067;BME280;27734;47.028;28.820;2023-01-28T00:04:49;100444.86;;;-1.91;91.74
42067;BME280;27734;47.028;28.820;2023-01-28T00:07:21;100439.84;;;-1.89;91.34
42067;BME280;27734;47.028;28.820;2023-01-28T00:09:53;100444.99;;;-1.89;91.21
42067;BME280;27734;47.028;28.820;2023-01-28T00:12:25;100441.41;;;-1.91;90.33
42067;BME280;27734;47.028;28.820;2023-01-28T00:14:56;100439.59;;;-1.92;91.51
42067;BME280;27734;47.028;28.820;2023-01-28T00:17:27;100443.05;;;-1.92;90.50
42067;BME280;27734;47.028;28.820;2023-01-28T00:19:58;100437.91;;;-1.92;90.56
42067;BME280;27734;47.028;28.820;2023-01-28T00:22:30;100439.72;;;-1.91;90.08
42067;BME280;27734;47.028;28.820;2023-01-28T00:25:04;100436.76;;;-1.95;91.48
42067;BME280;27734;47.028;28.820;2023-01-28T00:27:36;100433.80;;;-2.00;91.19
42067;BME280;27734;47.028;28.820;2023-01-28T00:30:10;100436.11;;;-2.03;90.39
42067;BME280;27734;47.028;28.820;2023-01-28T00:32:41;100440.36;;;-2.04;91.20
42067;BME280;27734;47.028;28.820;2023-01-28T00:35:13;100435.22;;;-2.04;90.68
42067;BME280;27734;47.028;28.820;2023-01-28T00:37:47;100432.78;;;-2.02;90.57
42067;BME280;27734;47.028;28.820;2023-01-28T00:40:18;100435.48;;;-2.01;90.11
42067;BME280;27734;47.028;28.820;2023-01-28T00:42:49;100439.07;;;-1.99;90.95
42067;BME280;27734;47.028;28.820;2023-01-28T00:45:21;100432.25;;;-1.98;91.17
42067;BME280;27734;47.028;28.820;2023-01-28T00:47:52;100445.10;;;-1.98;91.27
42067;BME280;27734;47.028;28.820;2023-01-28T00:50:23;100451.30;;;-1.96;91.65
42067;BME280;27734;47.028;28.820;2023-01-28T00:52:56;100438.57;;;-1.94;91.34
42067;BME280;27734;47.028;28.820;2023-01-28T00:55:27;100448.73;;;-1.96;91.24
42067;BME280;27734;47.028;28.820;2023-01-28T00:57:58;100444.34;;;-1.97;91.06
42067;BME280;27734;47.028;28.820;2023-01-28T01:00:30;100451.04;;;-1.99;91.49
42067;BME280;27734;47.028;28.820;2023-01-28T01:03:01;100457.96;;;-1.98;90.84
42067;BME280;27734;47.028;28.820;2023-01-28T01:05:33;100452.06;;;-1.97;91.02
42067;BME280;27734;47.028;28.820;2023-01-28T01:08:04;100442.53;;;-1.98;91.41
42067;BME280;27734;47.028;28.820;2023-01-28T01:10:37;100450.25;;;-1.98;90.23
42067;BME280;27734;47.028;28.820;2023-01-28T01:13:09;100453.87;;;-1.96;90.18
42067;BME280;27734;47.028;28.820;2023-01-28T01:15:40;100448.06;;;-1.93;90.93
42067;BME280;27734;47.028;28.820;2023-01-28T01:18:12;100457.85;;;-1.89;90.68
42067;BME280;27734;47.028;28.820;2023-01-28T01:20:43;100459.66;;;-1.88;90.78
42067;BME280;27734;47.028;28.820;2023-01-28T01:23:15;100456.83;;;-1.91;90.51
42067;BME280;27734;47.028;28.820;2023-01-28T01:25:46;100460.03;;;-1.94;90.01
42067;BME280;27734;47.028;28.820;2023-01-28T01:28:17;100448.47;;;-1.99;90.86
42067;BME280;27734;47.028;28.820;2023-01-28T01:30:49;100455.00;;;-2.03;91.04
42067;BME280;27734;47.028;28.820;2023-01-28T01:33:21;100461.56;;;-2.06;91.01
42067;BME280;27734;47.028;28.820;2023-01-28T01:35:55;100459.75;;;-2.07;90.30
42067;BME280;27734;47.028;28.820;2023-01-28T01:38:27;100462.19;;;-2.09;90.48
42067;BME280;27734;47.028;28.820;2023-01-28T01:40:59;100450.00;;;-2.11;90.38
42067;BME280;27734;47.028;28.820;2023-01-28T01:46:33;100457.19;;;-2.18;91.37
42067;BME280;27734;47.028;28.820;2023-01-28T01:49:14;100441.00;;;-2.17;90.49
42067;BME280;27734;47.028;28.820;2023-01-28T01:51:49;100439.32;;;-2.16;90.09
42067;BME280;27734;47.028;28.820;2023-01-28T01:54:20;100456.43;;;-2.17;90.79
42067;BME280;27734;47.028;28.820;2023-01-28T01:56:53;100434.94;;;-2.17;90.31
42067;BME280;27734;47.028;28.820;2023-01-28T01:59:30;100448.98;;;-2.13;90.24
42067;BME280;27734;47.028;28.820;2023-01-28T02:02:05;100454.25;;;-2.12;90.65
42067;BME280;27734;47.028;28.820;2023-01-28T02:04:42;100457.84;;;-2.10;90.88
42067;BME280;27734;47.028;28.820;2023-01-28T02:07:17;100458.23;;;-2.05;90.89
42067;BME280;27734;47.028;28.820;2023-01-28T02:09:48;100452.42;;;-2.03;91.32
42067;BME280;27734;47.028;28.820;2023-01-28T02:12:23;100462.09;;;-2.00;90.32
42067;BME280;27734;47.028;28.820;2023-01-28T02:15:00;100459.64;;;-1.99;91.00
42067;BME280;27734;47.028;28.820;2023-01-28T02:17:33;100451.93;;;-1.99;90.53
42067;BME280;27734;47.028;28.820;2023-01-28T02:20:07;100442.66;;;-1.96;91.21
42067;BME280;27734;47.028;28.820;2023-01-28T02:23:01;100451.30;;;-1.96;90.22
42067;BME280;27734;47.028;28.820;2023-01-28T02:26:18;100445.23;;;-1.96;90.15
42067;BME280;27734;47.028;28.820;2023-01-28T02:28:56;100443.45;;;-1.97;91.35
42067;BME280;27734;47.028;28.820;2023-01-28T02:31:33;100440.75;;;-1.99;90.23
42067;BME280;27734;47.028;28.820;2023-01-28T02:34:14;100444.22;;;-1.99;90.13
42067;BME280;27734;47.028;28.820;2023-01-28T02:36:50;100445.89;;;-1.99;90.13
42067;BME280;27734;47.028;28.820;2023-01-28T02:39:30;100444.09;;;-2.00;90.27
42067;BME280;27734;47.028;28.820;2023-01-28T02:42:06;100442.53;;;-1.98;91.38
42067;BME280;27734;47.028;28.820;2023-01-28T02:44:39;100446.03;;;-1.97;90.98
42067;BME280;27734;47.028;28.820;2023-01-28T02:47:12;100443.33;;;-1.99;91.50
42067;BME280;27734;47.028;28.820;2023-01-28T02:50:10;100439.83;;;-2.00;90.70
42067;BME280;27734;47.028;28.820;2023-01-28T02:52:51;100445.77;;;-2.01;90.30
42067;BME280;27734;47.028;28.820;2023-01-28T02:55:50;100434.56;;;-2.01;91.32
42067;BME280;27734;47.028;28.820;2023-01-28T02:58:29;100429.28;;;-2.03;90.94
42067;BME280;27734;47.028;28.820;2023-01-28T03:01:09;100421.95;;;-1.98;91.43
42067;BME280;27734;47.028;28.820;2023-01-28T03:03:54;100434.06;;;-1.97;92.12
42067;BME280;27734;47.028;28.820;2023-01-28T03:06:32;100426.47;;;-1.95;90.79
42067;BME280;27734;47.028;28.820;2023-01-28T03:09:07;100426.34;;;-1.97;91.04
42067;BME280;27734;47.028;28.820;2023-01-28T03:11:55;100422.22;;;-1.95;91.07
42067;BME280;27734;47.028;28.820;2023-01-28T03:14:47;100420.57;;;-1.94;91.13
42067;BME280;27734;47.028;28.820;2023-01-28T03:17:41;100407.33;;;-1.99;91.62
42067;BME280;27734;47.028;28.820;2023-01-28T03:20:37;100413.87;;;-1.92;92.68
42067;BME280;27734;47.028;28.820;2023-01-28T03:23:31;100419.14;;;-1.91;91.16
42067;BME280;27734;47.028;28.820;2023-01-28T03:26:25;100412.44;;;-1.89;91.89
42067;BME280;27734;47.028;28.820;2023-01-28T03:29:16;100409.24;;;-1.86;91.44
42067;BME280;27734;47.028;28.820;2023-01-28T03:32:11;100411.94;;;-1.85;92.02
42067;BME280;27734;47.028;28.820;2023-01-28T03:35:00;100415.66;;;-1.81;91.74
42067;BME280;27734;47.028;28.820;2023-01-28T03:37:49;100413.08;;;-1.81;91.79
42067;BME280;27734;47.028;28.820;2023-01-28T03:40:25;100420.30;;;-1.77;92.88
42067;BME280;27734;47.028;28.820;2023-01-28T03:42:56;100411.02;;;-1.75;91.72
42067;BME280;27734;47.028;28.820;2023-01-28T03:45:37;100416.30;;;-1.73;92.36
42067;BME280;27734;47.028;28.820;2023-01-28T03:48:10;100425.83;;;-1.72;92.34
42067;BME280;27734;47.028;28.820;2023-01-28T03:50:41;100415.79;;;-1.69;92.71
42067;BME280;27734;47.028;28.820;2023-01-28T03:53:13;100420.94;;;-1.69;92.74
42067;BME280;27734;47.028;28.820;2023-01-28T03:55:53;100420.17;;;-1.68;92.37
42067;BME280;27734;47.028;28.820;2023-01-28T03:58:31;100414.36;;;-1.66;93.70
42067;BME280;27734;47.028;28.820;2023-01-28T04:01:21;100417.06;;;-1.64;92.56
42067;BME280;27734;47.028;28.820;2023-01-28T04:03:53;100416.30;;;-1.63;93.11
42067;BME280;27734;47.028;28.820;2023-01-28T04:06:30;100426.72;;;-1.61;93.53
42067;BME280;27734;47.028;28.820;2023-01-28T04:09:21;100416.42;;;-1.61;93.21
42067;BME280;27734;47.028;28.820;2023-01-28T04:11:52;100418.23;;;-1.60;92.63
42067;BME280;27734;47.028;28.820;2023-01-28T04:14:31;100419.25;;;-1.58;92.69
42067;BME280;27734;47.028;28.820;2023-01-28T04:17:16;100420.27;;;-1.56;92.77
42067;BME280;27734;47.028;28.820;2023-01-28T04:19:49;100423.73;;;-1.56;92.56
42067;BME280;27734;47.028;28.820;2023-01-28T04:22:20;100440.22;;;-1.54;93.89
42067;BME280;27734;47.028;28.820;2023-01-28T04:24:53;100430.81;;;-1.53;93.16
42067;BME280;27734;47.028;28.820;2023-01-28T04:27:24;100433.52;;;-1.52;93.78
42067;BME280;27734;47.028;28.820;2023-01-28T04:29:55;100422.59;;;-1.49;93.79
42067;BME280;27734;47.028;28.820;2023-01-28T04:32:38;100423.47;;;-1.49;93.71
42067;BME280;27734;47.028;28.820;2023-01-28T04:35:28;100422.71;;;-1.48;93.31
42067;BME280;27734;47.028;28.820;2023-01-28T04:38:19;100425.53;;;-1.45;93.56
42067;BME280;27734;47.028;28.820;2023-01-28T04:41:00;100425.53;;;-1.45;93.72
42067;BME280;27734;47.028;28.820;2023-01-28T04:43:36;100423.85;;;-1.44;93.72
42067;BME280;27734;47.028;28.820;2023-01-28T04:46:30;100434.40;;;-1.41;93.21
42067;BME280;27734;47.028;28.820;2023-01-28T04:49:25;100436.21;;;-1.40;94.11
42067;BME280;27734;47.028;28.820;2023-01-28T04:52:16;100430.39;;;-1.37;93.55
42067;BME280;27734;47.028;28.820;2023-01-28T04:54:59;100445.20;;;-1.35;93.59
42067;BME280;27734;47.028;28.820;2023-01-28T04:57:32;100439.41;;;-1.32;94.35
42067;BME280;27734;47.028;28.820;2023-01-28T05:00:05;100432.70;;;-1.30;93.98
42067;BME280;27734;47.028;28.820;2023-01-28T05:02:36;100432.95;;;-1.27;94.05
42067;BME280;27734;47.028;28.820;2023-01-28T05:05:08;100440.05;;;-1.24;93.86
42067;BME280;27734;47.028;28.820;2023-01-28T05:08:01;100438.48;;;-1.22;94.12
42067;BME280;27734;47.028;28.820;2023-01-28T05:10:32;100446.45;;;-1.19;94.22
42067;BME280;27734;47.028;28.820;2023-01-28T05:13:04;100438.85;;;-1.18;94.19
42067;BME280;27734;47.028;28.820;2023-01-28T05:15:35;100442.31;;;-1.17;94.76
42067;BME280;27734;47.028;28.820;2023-01-28T05:18:07;100450.30;;;-1.14;93.58
42067;BME280;27734;47.028;28.820;2023-01-28T05:20:43;100449.66;;;-1.12;94.69
42067;BME280;27734;47.028;28.820;2023-01-28T05:23:15;100454.16;;;-1.09;94.18
42067;BME280;27734;47.028;28.820;2023-01-28T05:25:53;100450.03;;;-1.07;93.86
42067;BME280;27734;47.028;28.820;2023-01-28T05:28:25;100455.42;;;-1.04;94.30
42067;BME280;27734;47.028;28.820;2023-01-28T05:31:03;100453.98;;;-1.00;93.98
42067;BME280;27734;47.028;28.820;2023-01-28T05:33:35;100463.66;;;-0.98;93.71
42067;BME280;27734;47.028;28.820;2023-01-28T05:36:08;100455.25;;;-0.95;93.78
42067;BME280;27734;47.028;28.820;2023-01-28T05:38:40;100465.80;;;-0.92;94.32
42067;BME280;27734;47.028;28.820;2023-01-28T05:41:12;100465.16;;;-0.89;93.57
42067;BME280;27734;47.028;28.820;2023-01-28T05:43:45;100463.59;;;-0.87;93.04
42067;BME280;27734;47.028;28.820;2023-01-28T05:46:42;100465.66;;;-0.83;93.92
42067;BME280;27734;47.028;28.820;2023-01-28T05:49:50;100469.48;;;-0.78;92.93
42067;BME280;27734;47.028;28.820;2023-01-28T05:52:47;100471.55;;;-0.74;92.80
42067;BME280;27734;47.028;28.820;2023-01-28T05:55:27;100480.41;;;-0.70;92.34
42067;BME280;27734;47.028;28.820;2023-01-28T05:57:58;100477.95;;;-0.69;92.59
42067;BME280;27734;47.028;28.820;2023-01-28T06:00:30;100479.25;;;-0.64;92.17
42067;BME280;27734;47.028;28.820;2023-01-28T06:03:02;100476.91;;;-0.61;92.32
42067;BME280;27734;47.028;28.820;2023-01-28T06:05:34;100477.92;;;-0.59;91.73
42067;BME280;27734;47.028;28.820;2023-01-28T06:08:05;100487.59;;;-0.56;91.71
42067;BME280;27734;47.028;28.820;2023-01-28T06:10:37;100482.69;;;-0.53;91.38
42067;BME280;27734;47.028;28.820;2023-01-28T06:13:08;100488.05;;;-0.50;91.01
42067;BME280;27734;47.028;28.820;2023-01-28T06:15:58;100493.57;;;-0.45;90.92
42067;BME280;27734;47.028;28.820;2023-01-28T06:18:48;100496.52;;;-0.41;91.01
42067;BME280;27734;47.028;28.820;2023-01-28T06:21:19;100495.10;;;-0.37;91.68
42067;BME280;27734;47.028;28.820;2023-01-28T06:27:08;100495.47;;;-0.32;90.72
42067;BME280;27734;47.028;28.820;2023-01-28T06:29:40;100504.98;;;-0.31;90.10
42067;BME280;27734;47.028;28.820;2023-01-28T06:32:11;100505.34;;;-0.27;90.76
42067;BME280;27734;47.028;28.820;2023-01-28T06:34:46;100504.05;;;-0.22;91.24
42067;BME280;27734;47.028;28.820;2023-01-28T06:37:17;100506.75;;;-0.20;90.62
42067;BME280;27734;47.028;28.820;2023-01-28T06:39:48;100509.56;;;-0.17;90.55
42067;BME280;27734;47.028;28.820;2023-01-28T06:42:21;100505.42;;;-0.15;89.70
42067;BME280;27734;47.028;28.820;2023-01-28T06:44:52;100503.97;;;-0.11;90.54
42067;BME280;27734;47.028;28.820;2023-01-28T06:47:23;100503.44;;;-0.07;90.33
42067;BME280;27734;47.028;28.820;2023-01-28T06:49:57;100508.95;;;-0.03;90.35
42067;BME280;27734;47.028;28.820;2023-01-28T06:52:29;100508.31;;;0.00;89.93
42067;BME280;27734;47.028;28.820;2023-01-28T06:55:05;100492.59;;;-0.03;90.81
42067;BME280;27734;47.028;28.820;2023-01-28T06:57:40;100501.25;;;0.09;90.10
42067;BME280;27734;47.028;28.820;2023-01-28T07:00:15;100502.53;;;0.14;90.61
42067;BME280;27734;47.028;28.820;2023-01-28T07:02:49;100501.84;;;0.17;89.13
42067;BME280;27734;47.028;28.820;2023-01-28T07:05:24;100495.38;;;0.22;89.11
42067;BME280;27734;47.028;28.820;2023-01-28T07:07:57;100488.98;;;0.29;89.79
42067;BME280;27734;47.028;28.820;2023-01-28T07:10:30;100491.15;;;0.34;89.86
42067;BME280;27734;47.028;28.820;2023-01-28T07:13:08;100493.97;;;0.38;89.42
42067;BME280;27734;47.028;28.820;2023-01-28T07:15:52;100492.39;;;0.40;90.22
42067;BME280;27734;47.028;28.820;2023-01-28T07:18:25;100491.16;;;0.46;89.93
42067;BME280;27734;47.028;28.820;2023-01-28T07:20:56;100494.66;;;0.47;88.78
42067;BME280;27734;47.028;28.820;2023-01-28T07:23:28;100497.48;;;0.50;89.13
42067;BME280;27734;47.028;28.820;2023-01-28T07:26:05;100501.95;;;0.52;88.42
42067;BME280;27734;47.028;28.820;2023-01-28T07:28:37;100502.84;;;0.53;88.14
42067;BME280;27734;47.028;28.820;2023-01-28T07:31:11;100501.19;;;0.53;88.05
42067;BME280;27734;47.028;28.820;2023-01-28T07:33:45;100512.28;;;0.52;87.34
42067;BME280;27734;47.028;28.820;2023-01-28T07:36:19;100513.17;;;0.53;88.82
42067;BME280;27734;47.028;28.820;2023-01-28T07:38:52;100512.97;;;0.50;87.40
42067;BME280;27734;47.028;28.820;2023-01-28T07:41:24;100502.64;;;0.50;88.25
42067;BME280;27734;47.028;28.820;2023-01-28T07:43:57;100513.17;;;0.53;87.98
42067;BME280;27734;47.028;28.820;2023-01-28T07:46:30;100502.42;;;0.59;88.90
42067;BME280;27734;47.028;28.820;2023-01-28T07:49:07;100506.92;;;0.61;86.33
42067;BME280;27734;47.028;28.820;2023-01-28T07:51:37;100508.59;;;0.61;85.86
42067;BME280;27734;47.028;28.820;2023-01-28T07:54:11;100502.66;;;0.62;86.71
42067;BME280;27734;47.028;28.820;2023-01-28T07:56:42;100502.84;;;0.53;84.67
42067;BME280;27734;47.028;28.820;2023-01-28T07:59:16;100501.53;;;0.58;86.80
42067;BME280;27734;47.028;28.820;2023-01-28T08:01:47;100509.39;;;0.60;86.53
42067;BME280;27734;47.028;28.820;2023-01-28T08:04:19;100505.23;;;0.62;86.87
42067;BME280;27734;47.028;28.820;2023-01-28T08:06:51;100503.30;;;0.59;86.48
42067;BME280;27734;47.028;28.820;2023-01-28T08:09:24;100515.09;;;0.56;85.85
42067;BME280;27734;47.028;28.820;2023-01-28T08:11:55;100512.75;;;0.59;86.45
42067;BME280;27734;47.028;28.820;2023-01-28T08:14:27;100504.00;;;0.57;85.65
42067;BME280;27734;47.028;28.820;2023-01-28T08:16:59;100501.30;;;0.55;85.31
42067;BME280;27734;47.028;28.820;2023-01-28T08:19:30;100498.72;;;0.55;85.62
42067;BME280;27734;47.028;28.820;2023-01-28T08:22:02;100496.37;;;0.58;85.45
42067;BME280;27734;47.028;28.820;2023-01-28T08:24:33;100494.13;;;0.63;85.95
42067;BME280;27734;47.028;28.820;2023-01-28T08:27:04;100484.80;;;0.65;85.51
42067;BME280;27734;47.028;28.820;2023-01-28T08:29:36;100493.44;;;0.65;84.76
42067;BME280;27734;47.028;28.820;2023-01-28T08:32:38;100493.90;;;0.71;84.95
42067;BME280;27734;47.028;28.820;2023-01-28T08:35:11;100477.74;;;0.74;84.90
42067;BME280;27734;47.028;28.820;2023-01-28T08:37:46;100490.55;;;0.73;84.03
42067;BME280;27734;47.028;28.820;2023-01-28T08:40:25;100470.34;;;0.79;84.94
42067;BME280;27734;47.028;28.820;2023-01-28T08:42:57;100481.13;;;0.85;85.46
42067;BME280;27734;47.028;28.820;2023-01-28T08:45:29;100473.48;;;0.86;84.11
42067;BME280;27734;47.028;28.820;2023-01-28T08:48:02;100473.05;;;0.92;84.72
42067;BME280;27734;47.028;28.820;2023-01-28T08:50:36;100475.86;;;0.95;84.46
42067;BME280;27734;47.028;28.820;2023-01-28T08:53:13;100470.92;;;0.98;84.88
42067;BME280;27734;47.028;28.820;2023-01-28T08:55:47;100486.20;;;0.95;83.39
42067;BME280;27734;47.028;28.820;2023-01-28T08:58:19;100466.98;;;1.03;84.92
42067;BME280;27734;47.028;28.820;2023-01-28T09:00:54;100465.06;;;1.01;83.61
42067;BME280;27734;47.028;28.820;2023-01-28T09:03:34;100458.45;;;1.04;84.14
42067;BME280;27734;47.028;28.820;2023-01-28T09:06:08;100453.69;;;1.11;84.20
42067;BME280;27734;47.028;28.820;2023-01-28T09:08:40;100447.75;;;1.12;83.35
42067;BME280;27734;47.028;28.820;2023-01-28T09:11:14;100440.99;;;1.14;82.35
42067;BME280;27734;47.028;28.820;2023-01-28T09:13:48;100443.47;;;1.12;82.59
42067;BME280;27734;47.028;28.820;2023-01-28T09:16:21;100451.22;;;1.12;82.82
42067;BME280;27734;47.028;28.820;2023-01-28T09:18:57;100453.25;;;1.16;82.55
42067;BME280;27734;47.028;28.820;2023-01-28T09:21:28;100432.69;;;1.18;82.68
42067;BME280;27734;47.028;28.820;2023-01-28T09:24:03;100429.66;;;1.23;82.43
42067;BME280;27734;47.028;28.820;2023-01-28T09:26:34;100440.88;;;1.24;82.01
42067;BME280;27734;47.028;28.820;2023-01-28T09:29:07;100445.50;;;1.16;82.15
42067;BME280;27734;47.028;28.820;2023-01-28T09:31:40;100430.44;;;1.11;82.72
42067;BME280;27734;47.028;28.820;2023-01-28T09:34:12;100437.19;;;1.08;82.27
42067;BME280;27734;47.028;28.820;2023-01-28T09:36:44;100418.77;;;1.04;81.86
42067;BME280;27734;47.028;28.820;2023-01-28T09:39:15;100425.19;;;0.97;81.62
42067;BME280;27734;47.028;28.820;2023-01-28T09:41:54;100415.30;;;0.92;81.31
42067;BME280;27734;47.028;28.820;2023-01-28T09:44:39;100417.98;;;0.93;81.93
42067;BME280;27734;47.028;28.820;2023-01-28T09:47:21;100417.98;;;0.93;82.27
42067;BME280;27734;47.028;28.820;2023-01-28T09:49:58;100412.27;;;0.97;82.05
42067;BME280;27734;47.028;28.820;2023-01-28T09:52:35;100411.93;;;0.93;81.72
42067;BME280;27734;47.028;28.820;2023-01-28T09:55:16;100406.20;;;0.85;81.69
42067;BME280;27734;47.028;28.820;2023-01-28T09:57:51;100408.56;;;0.82;81.39
42067;BME280;27734;47.028;28.820;2023-01-28T10:00:28;100405.55;;;0.87;81.95
42067;BME280;27734;47.028;28.820;2023-01-28T10:03:32;100407.09;;;0.85;81.56
42067;BME280;27734;47.028;28.820;2023-01-28T10:06:21;100407.67;;;0.81;80.93
42067;BME280;27734;47.028;28.820;2023-01-28T10:09:10;100403.07;;;0.89;81.35
42067;BME280;27734;47.028;28.820;2023-01-28T10:12:07;100410.23;;;0.93;80.31
42067;BME280;27734;47.028;28.820;2023-01-28T10:14:53;100404.95;;;1.03;80.73
42067;BME280;27734;47.028;28.820;2023-01-28T10:17:32;100408.31;;;1.02;80.13
42067;BME280;27734;47.028;28.820;2023-01-28T10:20:19;100404.19;;;1.04;79.99
42067;BME280;27734;47.028;28.820;2023-01-28T10:22:57;100409.35;;;1.04;79.34
42067;BME280;27734;47.028;28.820;2023-01-28T10:25:35;100408.31;;;1.02;79.76
42067;BME280;27734;47.028;28.820;2023-01-28T10:28:21;100402.70;;;0.96;80.01
42067;BME280;27734;47.028;28.820;2023-01-28T10:30:55;100400.48;;;0.89;78.61
42067;BME280;27734;47.028;28.820;2023-01-28T10:33:35;100404.06;;;0.79;79.43
42067;BME280;27734;47.028;28.820;2023-01-28T10:36:12;100402.52;;;0.81;80.30
42067;BME280;27734;47.028;28.820;2023-01-28T10:38:47;100396.76;;;0.85;80.29
42067;BME280;27734;47.028;28.820;2023-01-28T10:41:23;100399.68;;;0.90;80.09
42067;BME280;27734;47.028;28.820;2023-01-28T10:43:57;100393.41;;;0.86;79.99
42067;BME280;27734;47.028;28.820;2023-01-28T10:46:31;100389.70;;;0.83;79.04
42067;BME280;27734;47.028;28.820;2023-01-28T10:49:12;100392.73;;;0.77;79.09
42067;BME280;27734;47.028;28.820;2023-01-28T10:51:48;100408.55;;;0.70;79.62
42067;BME280;27734;47.028;28.820;2023-01-28T10:54:22;100379.81;;;0.65;80.18
42067;BME280;27734;47.028;28.820;2023-01-28T10:56:53;100388.48;;;0.66;80.25
42067;BME280;27734;47.028;28.820;2023-01-28T10:59:28;100390.14;;;0.65;80.38
42067;BME280;27734;47.028;28.820;2023-01-28T11:02:03;100388.36;;;0.64;80.25
42067;BME280;27734;47.028;28.820;2023-01-28T11:04:36;100395.77;;;0.60;79.86
42067;BME280;27734;47.028;28.820;2023-01-28T11:07:17;100383.98;;;0.51;79.63
42067;BME280;27734;47.028;28.820;2023-01-28T11:09:50;100379.80;;;0.42;80.45
42067;BME280;27734;47.028;28.820;2023-01-28T11:12:24;100384.97;;;0.42;80.57
42067;BME280;27734;47.028;28.820;2023-01-28T11:14:58;100375.09;;;0.48;80.61
42067;BME280;27734;47.028;28.820;2023-01-28T11:17:32;100374.98;;;0.46;80.10
42067;BME280;27734;47.028;28.820;2023-01-28T11:20:17;100362.77;;;0.44;80.36
42067;BME280;27734;47.028;28.820;2023-01-28T11:22:53;100374.64;;;0.42;80.56
42067;BME280;27734;47.028;28.820;2023-01-28T11:25:29;100374.41;;;0.39;79.99
42067;BME280;27734;47.028;28.820;2023-01-28T11:28:04;100372.41;;;0.34;79.78
42067;BME280;27734;47.028;28.820;2023-01-28T11:30:37;100362.09;;;0.34;80.30
42067;BME280;27734;47.028;28.820;2023-01-28T11:33:13;100367.25;;;0.34;79.99
42067;BME280;27734;47.028;28.820;2023-01-28T11:36:03;100362.31;;;0.38;80.57
42067;BME280;27734;47.028;28.820;2023-01-28T11:38:35;100360.51;;;0.37;80.64
42067;BME280;27734;47.028;28.820;2023-01-28T11:41:15;100356.12;;;0.35;80.49
42067;BME280;27734;47.028;28.820;2023-01-28T11:43:50;100346.94;;;0.39;80.74
42067;BME280;27734;47.028;28.820;2023-01-28T11:46:39;100335.81;;;0.40;80.35
42067;BME280;27734;47.028;28.820;2023-01-28T11:49:20;100332.11;;;0.37;81.07
42067;BME280;27734;47.028;28.820;2023-01-28T11:52:03;100349.75;;;0.42;80.67
42067;BME280;27734;47.028;28.820;2023-01-28T11:54:49;100345.02;;;0.37;80.54
42067;BME280;27734;47.028;28.820;2023-01-28T11:57:32;100344.47;;;0.41;80.85
42067;BME280;27734;47.028;28.820;2023-01-28T12:00:32;100343.89;;;0.45;80.98
42067;BME280;27734;47.028;28.820;2023-01-28T12:03:33;100345.15;;;0.50;81.33
42067;BME280;27734;47.028;28.820;2023-01-28T12:06:42;100347.14;;;0.54;80.32
42067;BME280;27734;47.028;28.820;2023-01-28T12:09:24;100349.73;;;0.54;80.37
42067;BME280;27734;47.028;28.820;2023-01-28T12:12:11;100361.05;;;0.56;80.48
42067;BME280;27734;47.028;28.820;2023-01-28T12:15:02;100353.31;;;0.56;80.36
42067;BME280;27734;47.028;28.820;2023-01-28T12:17:45;100354.12;;;0.55;80.12
42067;BME280;27734;47.028;28.820;2023-01-28T12:20:25;100354.00;;;0.53;79.76
42067;BME280;27734;47.028;28.820;2023-01-28T12:23:19;100359.83;;;0.51;79.70
42067;BME280;27734;47.028;28.820;2023-01-28T12:26:05;100348.39;;;0.47;79.44
42067;BME280;27734;47.028;28.820;2023-01-28T12:28:48;100347.39;;;0.45;79.43
42067;BME280;27734;47.028;28.820;2023-01-28T12:31:40;100348.94;;;0.43;79.60
42067;BME280;27734;47.028;28.820;2023-01-28T12:37:39;100351.98;;;0.38;79.93
42067;BME280;27734;47.028;28.820;2023-01-28T12:40:41;100363.09;;;0.37;79.17
42067;BME280;27734;47.028;28.820;2023-01-28T12:43:19;100365.67;;;0.37;79.96
42067;BME280;27734;47.028;28.820;2023-01-28T12:45:56;100353.31;;;0.32;79.59
42067;BME280;27734;47.028;28.820;2023-01-28T12:48:35;100346.48;;;0.33;79.24
42067;BME280;27734;47.028;28.820;2023-01-28T12:51:13;100356.92;;;0.34;79.58
42067;BME280;27734;47.028;28.820;2023-01-28T12:53:53;100361.86;;;0.31;79.29
42067;BME280;27734;47.028;28.820;2023-01-28T12:56:36;100355.89;;;0.32;79.47
42067;BME280;27734;47.028;28.820;2023-01-28T12:59:21;100361.05;;;0.32;79.84
42067;BME280;27734;47.028;28.820;2023-01-28T13:02:14;100364.09;;;0.27;79.65
42067;BME280;27734;47.028;28.820;2023-01-28T13:04:53;100380.78;;;0.20;79.85
42067;BME280;27734;47.028;28.820;2023-01-28T13:07:31;100382.91;;;0.14;80.05
42067;BME280;27734;47.028;28.820;2023-01-28T13:10:13;100369.00;;;0.12;80.20
42067;BME280;27734;47.028;28.820;2023-01-28T13:12:49;100365.41;;;0.10;80.04
42067;BME280;27734;47.028;28.820;2023-01-28T13:15:22;100358.56;;;0.10;80.40
42067;BME280;27734;47.028;28.820;2023-01-28T13:17:59;100372.34;;;0.11;80.36
42067;BME280;27734;47.028;28.820;2023-01-28T13:20:45;100374.70;;;0.08;80.45
42067;BME280;27734;47.028;28.820;2023-01-28T13:23:24;100374.35;;;0.03;80.69
42067;BME280;27734;47.028;28.820;2023-01-28T13:26:26;100381.98;;;0.02;80.90
42067;BME280;27734;47.028;28.820;2023-01-28T13:29:19;100387.94;;;0.01;81.51
42067;BME280;27734;47.028;28.820;2023-01-28T13:31:53;100386.94;;;-0.02;81.56
42067;BME280;27734;47.028;28.820;2023-01-28T13:34:31;100385.90;;;-0.04;81.83
42067;BME280;27734;47.028;28.820;2023-01-28T13:37:18;100395.21;;;-0.06;81.69
42067;BME280;27734;47.028;28.820;2023-01-28T13:40:00;100399.48;;;-0.06;82.16
42067;BME280;27734;47.028;28.820;2023-01-28T13:42:35;100398.56;;;-0.07;82.13
42067;BME280;27734;47.028;28.820;2023-01-28T13:45:24;100399.48;;;-0.06;81.62
42067;BME280;27734;47.028;28.820;2023-01-28T13:48:01;100401.26;;;-0.05;81.93
42067;BME280;27734;47.028;28.820;2023-01-28T13:50:42;100412.50;;;-0.05;81.57